createdAt,value
2022-10-18T00:00:01.535Z,103.42
2022-10-18T00:05:02.186Z,103.83
2022-10-18T00:10:01.516Z,103.68
2022-10-18T00:15:01.630Z,103.49
2022-10-18T00:20:01.829Z,103.55
2022-10-18T00:25:01.849Z,103.81
2022-10-18T00:30:01.907Z,103.92
2022-10-18T00:35:01.907Z,103.83
2022-10-18T00:40:01.478Z,103.82
2022-10-18T00:45:01.258Z,103.65
2022-10-18T00:50:01.925Z,103.46
2022-10-18T00:55:01.549Z,103.61
2022-10-18T01:00:01.965Z,103.66
2022-10-18T01:05:02.007Z,103.52
2022-10-18T01:10:02.288Z,103.91
2022-10-18T01:15:02.239Z,103.93
2022-10-18T01:20:02.067Z,103.73
2022-10-18T01:25:06.799Z,103.87
2022-10-18T01:30:01.620Z,103.71
2022-10-18T01:35:01.360Z,103.77
2022-10-18T01:40:01.789Z,103.83
2022-10-18T01:45:02.002Z,103.52
2022-10-18T01:50:01.653Z,103.46
2022-10-18T01:55:01.943Z,104.09
2022-10-18T02:00:01.709Z,104.1
2022-10-18T02:05:02.199Z,104.23
2022-10-18T02:10:02.041Z,103.79
2022-10-18T02:15:02.117Z,103.89
2022-10-18T02:20:02.256Z,103.7
2022-10-18T02:25:01.600Z,103.95
2022-10-18T02:30:02.140Z,103.95
2022-10-18T02:35:01.966Z,104.2
2022-10-18T02:40:01.319Z,104.36
2022-10-18T02:45:02.125Z,104.52
2022-10-18T02:50:02.066Z,104.42
2022-10-18T02:55:02.092Z,104.58
2022-10-18T03:00:02.192Z,104.61
2022-10-18T03:05:01.950Z,104.99
2022-10-18T03:10:02.137Z,105.06
2022-10-18T03:15:02.130Z,104.93
2022-10-18T03:20:02.249Z,104.82
2022-10-18T03:25:01.658Z,104.96
2022-10-18T03:30:01.558Z,104.58
2022-10-18T03:35:02.006Z,104.93
2022-10-18T03:40:02.241Z,104.82
2022-10-18T03:45:02.202Z,104.77
2022-10-18T03:50:01.784Z,104.7
2022-10-18T03:55:01.543Z,104.65
2022-10-18T04:00:02.005Z,104.71
2022-10-18T04:05:01.913Z,104.77
2022-10-18T04:10:02.153Z,104.73
2022-10-18T04:15:01.956Z,104.74
2022-10-18T04:20:01.707Z,104.8
2022-10-18T04:25:01.546Z,104.81
2022-10-18T04:30:01.703Z,104.73
2022-10-18T04:35:01.937Z,104.66
2022-10-18T04:40:01.967Z,104.63
2022-10-18T04:45:01.459Z,104.52
2022-10-18T04:50:01.743Z,104.52
2022-10-18T04:55:01.444Z,104.36
2022-10-18T05:00:01.411Z,104.36
2022-10-18T05:05:01.507Z,104.23
2022-10-18T05:10:01.840Z,104.23
2022-10-18T05:15:01.916Z,104.15
2022-10-18T05:20:02.062Z,104.16
2022-10-18T05:25:01.358Z,104.23
2022-10-18T05:30:04.600Z,104.22
2022-10-18T05:35:02.011Z,104.21
2022-10-18T05:40:02.234Z,104.15
2022-10-18T05:45:01.815Z,104.27
2022-10-18T05:50:01.351Z,104.38
2022-10-18T05:55:01.401Z,104.23
2022-10-18T06:00:02.228Z,104.13
2022-10-18T06:05:02.073Z,104.29
2022-10-18T06:10:01.382Z,104.15
2022-10-18T06:15:02.094Z,104.28
2022-10-18T06:20:01.468Z,104.42
2022-10-18T06:25:01.410Z,104.35
2022-10-18T06:30:01.798Z,104.32
2022-10-18T06:35:01.567Z,104.32
2022-10-18T06:40:01.962Z,104.27
2022-10-18T06:45:02.010Z,104.45
2022-10-18T06:50:02.021Z,104.37
2022-10-18T06:55:01.283Z,104.18
2022-10-18T07:00:01.754Z,104.42
2022-10-18T07:05:02.216Z,104.34
2022-10-18T07:10:01.304Z,104.26
2022-10-18T07:15:05.536Z,104.2
2022-10-18T07:20:01.818Z,104.19
2022-10-18T07:25:01.311Z,104.26
2022-10-18T07:30:01.842Z,104.28
2022-10-18T07:35:02.539Z,104.23
2022-10-18T07:40:02.211Z,104.38
2022-10-18T07:45:02.074Z,104.51
2022-10-18T07:50:01.534Z,104.36
2022-10-18T07:55:01.330Z,104.32
2022-10-18T08:00:01.754Z,104.58
2022-10-18T08:05:02.279Z,104.61
2022-10-18T08:10:02.386Z,104.64
2022-10-18T08:15:02.124Z,104.65
2022-10-18T08:20:12.152Z,104.71
2022-10-18T08:25:02.161Z,104.52
2022-10-18T08:30:02.231Z,104.77
2022-10-18T08:35:04.319Z,104.87
2022-10-18T08:40:01.874Z,104.83
2022-10-18T08:45:08.202Z,104.73
2022-10-18T08:50:01.609Z,104.55
2022-10-18T08:55:01.392Z,104.67
2022-10-18T09:00:01.827Z,104.7
2022-10-18T09:05:02.131Z,104.66
2022-10-18T09:10:01.551Z,104.71
2022-10-18T09:15:01.394Z,104.68
2022-10-18T09:20:01.834Z,104.76
2022-10-18T09:25:02.039Z,104.85
2022-10-18T09:30:01.803Z,104.82
2022-10-18T09:35:01.518Z,104.71
2022-10-18T09:40:01.420Z,104.81
2022-10-18T09:45:01.388Z,104.74
2022-10-18T09:50:01.334Z,104.69
2022-10-18T09:55:01.917Z,104.68
2022-10-18T10:00:02.222Z,104.59
2022-10-18T10:05:02.030Z,104.56
2022-10-18T10:10:01.706Z,104.57
2022-10-18T10:15:01.338Z,104.68
2022-10-18T10:20:01.573Z,104.68
2022-10-18T10:25:01.314Z,104.73
2022-10-18T10:30:05.776Z,104.79
2022-10-18T10:35:01.807Z,104.72
2022-10-18T10:40:21.095Z,104.87
2022-10-18T10:45:01.337Z,105.04
2022-10-18T10:50:01.725Z,104.98
2022-10-18T10:55:35.012Z,105.03
2022-10-18T11:00:02.002Z,105
2022-10-18T11:05:01.769Z,104.95
2022-10-18T11:10:01.635Z,105
2022-10-18T11:15:01.816Z,104.97
2022-10-18T11:20:01.628Z,105.01
2022-10-18T11:25:01.682Z,104.97
2022-10-18T11:30:02.168Z,105.06
2022-10-18T11:35:01.689Z,105.21
2022-10-18T11:40:01.608Z,105.42
2022-10-18T11:45:01.641Z,105.33
2022-10-18T11:50:01.366Z,105.09
2022-10-18T11:55:02.115Z,105.19
2022-10-18T12:00:01.438Z,104.98
2022-10-18T12:05:24.313Z,105.21
2022-10-18T12:10:02.098Z,105.2
2022-10-18T12:15:01.602Z,105.06
2022-10-18T12:20:01.332Z,104.98
2022-10-18T12:25:01.780Z,105.13
2022-10-18T12:30:01.547Z,105.09
2022-10-18T12:35:01.562Z,105.1
2022-10-18T12:40:12.069Z,105.19
2022-10-18T12:45:01.646Z,105.04
2022-10-18T12:50:02.209Z,105.11
2022-10-18T12:55:01.603Z,104.89
2022-10-18T13:00:01.945Z,104.84
2022-10-18T13:05:01.425Z,104.9
2022-10-18T13:10:02.308Z,104.67
2022-10-18T13:15:12.642Z,104.42
2022-10-18T13:20:24.512Z,104.55
2022-10-18T13:25:01.768Z,104.76
2022-10-18T13:30:01.700Z,104.71
2022-10-18T13:35:01.853Z,104.68
2022-10-18T13:40:01.639Z,104.9
2022-10-18T13:45:01.864Z,104.2
2022-10-18T13:50:01.588Z,104.15
2022-10-18T13:55:01.492Z,104.09
2022-10-18T14:00:02.161Z,104.21
2022-10-18T14:05:23.189Z,104.29
2022-10-18T14:10:04.090Z,104.15
2022-10-18T14:15:01.598Z,103.66
2022-10-18T14:20:01.878Z,103.9
2022-10-18T14:25:02.027Z,103.55
2022-10-18T14:30:01.414Z,103.31
2022-10-18T14:35:30.746Z,103.59
2022-10-18T14:40:02.268Z,103.23
2022-10-18T14:45:02.180Z,103.49
2022-10-18T14:50:01.843Z,103.72
2022-10-18T14:55:01.691Z,103.93
2022-10-18T15:00:01.426Z,103.41
2022-10-18T15:05:02.157Z,103.47
2022-10-18T15:10:01.596Z,103.42
2022-10-18T15:15:01.938Z,103.42
2022-10-18T15:20:05.195Z,103.29
2022-10-18T15:25:01.814Z,103.51
2022-10-18T15:30:01.866Z,103.71
2022-10-18T15:35:02.135Z,103.42
2022-10-18T15:40:01.526Z,103.26
2022-10-18T15:45:01.652Z,103.1
2022-10-18T15:50:01.599Z,103.11
2022-10-18T15:55:01.667Z,103.02
2022-10-18T16:00:01.786Z,102.88
2022-10-18T16:05:01.481Z,102.91
2022-10-18T16:10:01.922Z,102.79
2022-10-18T16:15:01.959Z,102.89
2022-10-18T16:20:02.247Z,102.66
2022-10-18T16:25:01.999Z,102.81
2022-10-18T16:30:03.461Z,102.78
2022-10-18T16:35:01.575Z,102.59
2022-10-18T16:40:02.147Z,102.56
2022-10-18T16:45:01.837Z,102.72
2022-10-18T16:50:05.503Z,103.04
2022-10-18T16:55:01.630Z,103.23
2022-10-18T17:00:02.154Z,103.09
2022-10-18T17:05:01.719Z,102.94
2022-10-18T17:10:01.394Z,103.13
2022-10-18T17:15:01.510Z,103.41
2022-10-18T17:20:01.748Z,103.29
2022-10-18T17:25:01.999Z,103.13
2022-10-18T17:30:02.047Z,102.86
2022-10-18T17:35:01.540Z,103.1
2022-10-18T17:40:01.880Z,102.9
2022-10-18T17:45:01.788Z,102.94
2022-10-18T17:50:01.856Z,103.05
2022-10-18T17:55:01.746Z,103.26
2022-10-18T18:00:01.541Z,103.02
2022-10-18T18:05:01.580Z,102.98
2022-10-18T18:10:02.044Z,103.27
2022-10-18T18:15:02.024Z,103.37
2022-10-18T18:20:01.603Z,103.46
2022-10-18T18:25:02.241Z,103.17
2022-10-18T18:30:01.991Z,103.4
2022-10-18T18:35:01.654Z,103.17
2022-10-18T18:40:02.205Z,103.15
2022-10-18T18:45:01.436Z,103.04
2022-10-18T18:50:01.552Z,103.04
2022-10-18T18:55:02.171Z,103.24
2022-10-18T19:00:01.719Z,103.36
2022-10-18T19:05:02.002Z,103.35
2022-10-18T19:10:02.370Z,103.3
2022-10-18T19:15:02.042Z,103.34
2022-10-18T19:20:02.158Z,103.42
2022-10-18T19:25:01.992Z,103.62
2022-10-18T19:30:01.712Z,103.23
2022-10-18T19:35:01.822Z,103.47
2022-10-18T19:40:01.296Z,103.21
2022-10-18T19:45:01.406Z,103.2
2022-10-18T19:50:01.820Z,103.26
2022-10-18T19:55:02.216Z,103.44
2022-10-18T20:00:03.488Z,103.42
2022-10-18T20:05:01.741Z,103.38
2022-10-18T20:10:01.746Z,103.36
2022-10-18T20:15:01.390Z,103.48
2022-10-18T20:20:02.012Z,103.37
2022-10-18T20:25:01.923Z,103.65
2022-10-18T20:30:01.825Z,103.41
2022-10-18T20:35:01.676Z,103.48
2022-10-18T20:40:01.547Z,103.61
2022-10-18T20:45:07.422Z,103.65
2022-10-18T20:50:01.954Z,103.7
2022-10-18T20:55:01.762Z,103.71
2022-10-18T21:00:02.145Z,103.47
2022-10-18T21:05:01.656Z,103.37
2022-10-18T21:10:02.010Z,103.33
2022-10-18T21:15:01.750Z,103.41
2022-10-18T21:20:01.491Z,103.62
2022-10-18T21:25:01.869Z,103.42
2022-10-18T21:30:01.783Z,103.36
2022-10-18T21:35:01.494Z,103.32
2022-10-18T21:40:02.085Z,103.33
2022-10-18T21:45:01.467Z,103.21
2022-10-18T21:50:01.354Z,103.35
2022-10-18T21:55:02.046Z,103.49
2022-10-18T22:00:01.825Z,103.62
2022-10-18T22:05:01.751Z,103.44
2022-10-18T22:10:02.108Z,103.39
2022-10-18T22:15:01.566Z,103.18
2022-10-18T22:20:01.536Z,103.23
2022-10-18T22:25:01.374Z,103.07
2022-10-18T22:30:02.049Z,103.23
2022-10-18T22:35:01.958Z,103.27
2022-10-18T22:40:02.160Z,103.22
2022-10-18T22:45:01.736Z,103.25
2022-10-18T22:50:01.718Z,103.42
2022-10-18T22:55:01.401Z,103.39
2022-10-18T23:00:01.796Z,103.35
2022-10-18T23:05:01.689Z,103.39
2022-10-18T23:10:01.260Z,103.21
2022-10-18T23:15:01.319Z,103.01
2022-10-18T23:20:01.301Z,102.68
2022-10-18T23:25:01.674Z,103.09
2022-10-18T23:30:01.865Z,103.13
2022-10-18T23:35:01.846Z,103.46
2022-10-18T23:40:01.875Z,103.14
2022-10-18T23:45:01.846Z,102.89
2022-10-18T23:50:02.149Z,103.1
2022-10-18T23:55:01.974Z,103.1
